sensor_id;sensor_type;location;lat;lon;timestamp;pressure;altitude;pressure_sealevel;temperature;humidity
6204;BME280;3135;42.602;23.468;2023-04-25T00:01:18;91940.72;;;8.61;100.00
6204;BME280;3135;42.602;23.468;2023-04-25T00:03:44;91927.59;;;8.64;100.00
6204;BME280;3135;42.602;23.468;2023-04-25T00:06:12;91927.09;;;8.76;100.00
6204;BME280;3135;42.602;23.468;2023-04-25T00:08:38;91919.13;;;8.62;100.00
6204;BME280;3135;42.602;23.468;2023-04-25T00:11:03;91918.13;;;8.72;100.00
6204;BME280;3135;42.602;23.468;2023-04-25T00:13:29;91922.03;;;8.88;100.00
6204;BME280;3135;42.602;23.468;2023-04-25T00:15:55;91905.47;;;8.78;100.00
6204;BME280;3135;42.602;23.468;2023-04-25T00:18:21;91896.06;;;8.58;100.00
6204;BME280;3135;42.602;23.468;2023-04-25T00:20:47;91894.19;;;8.58;100.00
6204;BME280;3135;42.602;23.468;2023-04-25T00:23:14;91888.97;;;8.53;100.00
6204;BME280;3135;42.602;23.468;2023-04-25T00:25:46;91890.22;;;8.56;100.00
6204;BME280;3135;42.602;23.468;2023-04-25T00:28:12;91866.09;;;8.52;100.00
6204;BME280;3135;42.602;23.468;2023-04-25T00:30:39;91882.53;;;8.54;100.00
6204;BME280;3135;42.602;23.468;2023-04-25T00:33:05;91867.34;;;8.55;100.00
6204;BME280;3135;42.602;23.468;2023-04-25T00:35:31;91862.00;;;8.68;100.00
6204;BME280;3135;42.602;23.468;2023-04-25T00:37:56;91854.59;;;8.65;100.00
6204;BME280;3135;42.602;23.468;2023-04-25T00:40:22;91836.47;;;8.67;100.00
6204;BME280;3135;42.602;23.468;2023-04-25T00:42:47;91828.19;;;8.55;100.00
6204;BME280;3135;42.602;23.468;2023-04-25T00:45:14;91818.34;;;8.42;100.00
6204;BME280;3135;42.602;23.468;2023-04-25T00:47:41;91795.50;;;8.27;100.00
6204;BME280;3135;42.602;23.468;2023-04-25T00:50:07;91801.59;;;8.28;100.00
6204;BME280;3135;42.602;23.468;2023-04-25T00:52:33;91795.28;;;8.37;100.00
6204;BME280;3135;42.602;23.468;2023-04-25T00:54:59;91801.91;;;8.40;100.00
6204;BME280;3135;42.602;23.468;2023-04-25T00:57:25;91806.16;;;8.41;100.00
6204;BME280;3135;42.602;23.468;2023-04-25T00:59:51;91804.09;;;8.38;100.00
6204;BME280;3135;42.602;23.468;2023-04-25T01:02:19;91811.97;;;8.43;100.00
6204;BME280;3135;42.602;23.468;2023-04-25T01:04:45;91802.38;;;8.42;100.00
6204;BME280;3135;42.602;23.468;2023-04-25T01:07:11;91790.97;;;8.28;100.00
6204;BME280;3135;42.602;23.468;2023-04-25T01:09:36;91782.88;;;8.33;100.00
6204;BME280;3135;42.602;23.468;2023-04-25T01:12:02;91786.03;;;8.35;100.00
6204;BME280;3135;42.602;23.468;2023-04-25T01:14:28;91793.50;;;8.47;100.00
6204;BME280;3135;42.602;23.468;2023-04-25T01:16:55;91785.34;;;8.43;100.00
6204;BME280;3135;42.602;23.468;2023-04-25T01:19:20;91777.16;;;8.39;100.00
6204;BME280;3135;42.602;23.468;2023-04-25T01:21:46;91777.53;;;8.47;100.00
6204;BME280;3135;42.602;23.468;2023-04-25T01:24:12;91786.00;;;8.49;100.00
6204;BME280;3135;42.602;23.468;2023-04-25T01:26:38;91792.91;;;8.50;100.00
6204;BME280;3135;42.602;23.468;2023-04-25T01:29:06;91781.28;;;8.45;100.00
6204;BME280;3135;42.602;23.468;2023-04-25T01:31:33;91783.25;;;8.54;100.00
6204;BME280;3135;42.602;23.468;2023-04-25T01:34:00;91784.13;;;8.49;100.00
6204;BME280;3135;42.602;23.468;2023-04-25T01:36:25;91778.22;;;8.52;100.00
6204;BME280;3135;42.602;23.468;2023-04-25T01:38:52;91784.63;;;8.51;100.00
6204;BME280;3135;42.602;23.468;2023-04-25T01:41:18;91777.00;;;8.58;100.00
6204;BME280;3135;42.602;23.468;2023-04-25T01:43:44;91774.94;;;8.55;100.00
6204;BME280;3135;42.602;23.468;2023-04-25T01:46:11;91769.16;;;8.76;100.00
6204;BME280;3135;42.602;23.468;2023-04-25T01:48:37;91767.50;;;8.88;100.00
6204;BME280;3135;42.602;23.468;2023-04-25T01:51:02;91762.34;;;8.69;100.00
6204;BME280;3135;42.602;23.468;2023-04-25T01:53:28;91757.41;;;8.54;100.00
6204;BME280;3135;42.602;23.468;2023-04-25T01:55:53;91753.50;;;8.60;100.00
6204;BME280;3135;42.602;23.468;2023-04-25T01:58:19;91763.25;;;8.65;100.00
6204;BME280;3135;42.602;23.468;2023-04-25T02:00:45;91770.19;;;8.66;100.00
6204;BME280;3135;42.602;23.468;2023-04-25T02:03:11;91777.28;;;8.70;100.00
6204;BME280;3135;42.602;23.468;2023-04-25T02:05:37;91773.38;;;8.77;100.00
6204;BME280;3135;42.602;23.468;2023-04-25T02:08:05;91773.50;;;8.72;100.00
6204;BME280;3135;42.602;23.468;2023-04-25T02:10:31;91774.91;;;8.33;100.00
6204;BME280;3135;42.602;23.468;2023-04-25T02:12:57;91773.91;;;8.29;100.00
6204;BME280;3135;42.602;23.468;2023-04-25T02:15:23;91785.63;;;8.28;100.00
6204;BME280;3135;42.602;23.468;2023-04-25T02:17:48;91781.41;;;8.40;100.00
6204;BME280;3135;42.602;23.468;2023-04-25T02:20:14;91766.41;;;8.31;100.00
6204;BME280;3135;42.602;23.468;2023-04-25T02:22:41;91768.59;;;8.29;100.00
6204;BME280;3135;42.602;23.468;2023-04-25T02:25:07;91765.38;;;8.04;100.00
6204;BME280;3135;42.602;23.468;2023-04-25T02:27:33;91765.00;;;7.97;100.00
6204;BME280;3135;42.602;23.468;2023-04-25T02:29:58;91741.19;;;7.92;100.00
6204;BME280;3135;42.602;23.468;2023-04-25T02:32:23;91751.78;;;8.06;100.00
6204;BME280;3135;42.602;23.468;2023-04-25T02:34:49;91735.41;;;8.12;100.00
6204;BME280;3135;42.602;23.468;2023-04-25T02:37:14;91753.31;;;8.34;100.00
6204;BME280;3135;42.602;23.468;2023-04-25T02:39:40;91738.81;;;8.27;100.00
6204;BME280;3135;42.602;23.468;2023-04-25T02:42:05;91745.22;;;8.39;100.00
6204;BME280;3135;42.602;23.468;2023-04-25T02:44:31;91752.31;;;8.44;100.00
6204;BME280;3135;42.602;23.468;2023-04-25T02:46:56;91737.91;;;8.31;100.00
6204;BME280;3135;42.602;23.468;2023-04-25T02:49:21;91744.81;;;8.32;100.00
6204;BME280;3135;42.602;23.468;2023-04-25T02:51:47;91742.25;;;8.27;100.00
6204;BME280;3135;42.602;23.468;2023-04-25T02:59:56;91752.13;;;8.27;100.00
6204;BME280;3135;42.602;23.468;2023-04-25T03:02:21;91743.66;;;8.25;100.00
6204;BME280;3135;42.602;23.468;2023-04-25T03:04:47;91735.03;;;8.05;100.00
6204;BME280;3135;42.602;23.468;2023-04-25T03:07:14;91745.28;;;7.98;100.00
6204;BME280;3135;42.602;23.468;2023-04-25T03:09:39;91745.03;;;7.86;100.00
6204;BME280;3135;42.602;23.468;2023-04-25T03:12:05;91745.03;;;7.86;100.00
6204;BME280;3135;42.602;23.468;2023-04-25T03:14:30;91732.41;;;7.91;100.00
6204;BME280;3135;42.602;23.468;2023-04-25T03:16:56;91731.13;;;7.89;100.00
6204;BME280;3135;42.602;23.468;2023-04-25T03:19:21;91721.47;;;7.79;100.00
6204;BME280;3135;42.602;23.468;2023-04-25T03:21:47;91733.69;;;7.80;100.00
6204;BME280;3135;42.602;23.468;2023-04-25T03:24:12;91727.00;;;7.83;100.00
6204;BME280;3135;42.602;23.468;2023-04-25T03:26:38;91739.00;;;7.94;100.00
6204;BME280;3135;42.602;23.468;2023-04-25T03:29:03;91746.31;;;7.75;100.00
6204;BME280;3135;42.602;23.468;2023-04-25T03:31:29;91728.19;;;7.77;100.00
6204;BME280;3135;42.602;23.468;2023-04-25T03:33:55;91728.59;;;7.56;100.00
6204;BME280;3135;42.602;23.468;2023-04-25T03:36:20;91738.25;;;7.66;100.00
6204;BME280;3135;42.602;23.468;2023-04-25T03:38:46;91723.19;;;7.61;100.00
6204;BME280;3135;42.602;23.468;2023-04-25T03:41:13;91737.34;;;7.71;100.00
6204;BME280;3135;42.602;23.468;2023-04-25T03:43:39;91739.72;;;7.86;100.00
6204;BME280;3135;42.602;23.468;2023-04-25T03:46:04;91718.25;;;7.82;100.00
6204;BME280;3135;42.602;23.468;2023-04-25T03:48:29;91729.78;;;7.78;100.00
6204;BME280;3135;42.602;23.468;2023-04-25T03:50:55;91722.69;;;7.73;100.00
6204;BME280;3135;42.602;23.468;2023-04-25T03:53:20;91741.41;;;7.68;100.00
6204;BME280;3135;42.602;23.468;2023-04-25T04:22:44;91712.16;;;8.04;100.00
6204;BME280;3135;42.602;23.468;2023-04-25T04:25:10;91698.38;;;8.02;100.00
6204;BME280;3135;42.602;23.468;2023-04-25T04:27:37;91706.28;;;8.30;100.00
6204;BME280;3135;42.602;23.468;2023-04-25T04:30:03;91727.84;;;8.42;100.00
6204;BME280;3135;42.602;23.468;2023-04-25T04:32:29;91741.19;;;8.64;100.00
6204;BME280;3135;42.602;23.468;2023-04-25T04:34:55;91737.13;;;8.31;100.00
6204;BME280;3135;42.602;23.468;2023-04-25T04:37:21;91742.63;;;8.48;100.00
6204;BME280;3135;42.602;23.468;2023-04-25T04:39:47;91745.66;;;8.55;100.00
6204;BME280;3135;42.602;23.468;2023-04-25T04:42:12;91742.00;;;8.51;100.00
6204;BME280;3135;42.602;23.468;2023-04-25T04:44:38;91752.75;;;8.82;100.00
6204;BME280;3135;42.602;23.468;2023-04-25T04:47:04;91749.22;;;8.73;100.00
6204;BME280;3135;42.602;23.468;2023-04-25T04:49:32;91734.28;;;8.86;100.00
6204;BME280;3135;42.602;23.468;2023-04-25T04:51:57;91740.31;;;9.00;100.00
6204;BME280;3135;42.602;23.468;2023-04-25T04:54:25;91737.41;;;9.10;100.00
6204;BME280;3135;42.602;23.468;2023-04-25T04:56:50;91748.41;;;9.17;100.00
6204;BME280;3135;42.602;23.468;2023-04-25T04:59:17;91756.09;;;9.19;100.00
6204;BME280;3135;42.602;23.468;2023-04-25T05:01:42;91756.31;;;9.00;100.00
6204;BME280;3135;42.602;23.468;2023-04-25T05:04:08;91749.75;;;9.06;100.00
6204;BME280;3135;42.602;23.468;2023-04-25T05:06:33;91759.09;;;9.17;100.00
6204;BME280;3135;42.602;23.468;2023-04-25T05:08:59;91755.06;;;9.29;100.00
6204;BME280;3135;42.602;23.468;2023-04-25T05:11:25;91745.44;;;9.19;100.00
6204;BME280;3135;42.602;23.468;2023-04-25T05:13:53;91760.91;;;9.39;100.00
6204;BME280;3135;42.602;23.468;2023-04-25T05:16:19;91750.69;;;9.33;100.00
6204;BME280;3135;42.602;23.468;2023-04-25T05:18:45;91743.75;;;9.23;100.00
6204;BME280;3135;42.602;23.468;2023-04-25T05:21:11;91750.13;;;8.91;100.00
6204;BME280;3135;42.602;23.468;2023-04-25T05:23:36;91759.22;;;8.90;100.00
6204;BME280;3135;42.602;23.468;2023-04-25T05:26:02;91769.28;;;8.70;100.00
6204;BME280;3135;42.602;23.468;2023-04-25T05:28:27;91791.69;;;8.56;100.00
6204;BME280;3135;42.602;23.468;2023-04-25T05:30:53;91778.72;;;8.40;100.00
6204;BME280;3135;42.602;23.468;2023-04-25T05:33:18;91777.47;;;8.60;100.00
6204;BME280;3135;42.602;23.468;2023-04-25T05:35:44;91765.22;;;8.73;100.00
6204;BME280;3135;42.602;23.468;2023-04-25T05:38:10;91789.72;;;8.61;100.00
6204;BME280;3135;42.602;23.468;2023-04-25T05:40:36;91795.72;;;8.67;100.00
6204;BME280;3135;42.602;23.468;2023-04-25T05:43:01;91795.84;;;8.62;100.00
6204;BME280;3135;42.602;23.468;2023-04-25T05:45:27;91790.81;;;8.60;100.00
6204;BME280;3135;42.602;23.468;2023-04-25T05:47:52;91794.19;;;8.75;100.00
6204;BME280;3135;42.602;23.468;2023-04-25T05:50:17;91780.41;;;8.73;100.00
6204;BME280;3135;42.602;23.468;2023-04-25T05:52:43;91783.50;;;8.88;100.00
6204;BME280;3135;42.602;23.468;2023-04-25T05:55:08;91789.00;;;9.14;100.00
6204;BME280;3135;42.602;23.468;2023-04-25T05:57:34;91776.16;;;9.16;100.00
6204;BME280;3135;42.602;23.468;2023-04-25T06:00:00;91767.88;;;9.27;100.00
6204;BME280;3135;42.602;23.468;2023-04-25T06:02:25;91759.69;;;9.14;100.00
6204;BME280;3135;42.602;23.468;2023-04-25T06:04:51;91774.81;;;9.28;100.00
6204;BME280;3135;42.602;23.468;2023-04-25T06:07:18;91770.34;;;9.14;100.00
6204;BME280;3135;42.602;23.468;2023-04-25T06:09:44;91774.69;;;9.33;100.00
6204;BME280;3135;42.602;23.468;2023-04-25T06:12:09;91768.50;;;9.24;100.00
6204;BME280;3135;42.602;23.468;2023-04-25T06:14:35;91781.72;;;9.06;100.00
6204;BME280;3135;42.602;23.468;2023-04-25T06:17:01;91760.19;;;8.94;100.00
6204;BME280;3135;42.602;23.468;2023-04-25T06:19:34;91783.22;;;9.21;100.00
6204;BME280;3135;42.602;23.468;2023-04-25T06:22:00;91777.31;;;9.55;100.00
6204;BME280;3135;42.602;23.468;2023-04-25T06:24:26;91766.75;;;9.50;100.00
6204;BME280;3135;42.602;23.468;2023-04-25T06:26:51;91776.38;;;9.60;100.00
6204;BME280;3135;42.602;23.468;2023-04-25T06:29:18;91787.19;;;9.63;100.00
6204;BME280;3135;42.602;23.468;2023-04-25T06:31:43;91795.28;;;9.81;100.00
6204;BME280;3135;42.602;23.468;2023-04-25T06:34:09;91781.88;;;9.63;100.00
6204;BME280;3135;42.602;23.468;2023-04-25T06:36:34;91797.31;;;9.75;100.00
6204;BME280;3135;42.602;23.468;2023-04-25T06:39:00;91776.59;;;9.81;100.00
6204;BME280;3135;42.602;23.468;2023-04-25T06:41:25;91785.84;;;9.83;100.00
6204;BME280;3135;42.602;23.468;2023-04-25T06:43:51;91802.44;;;10.11;100.00
6204;BME280;3135;42.602;23.468;2023-04-25T06:46:16;91783.22;;;9.92;100.00
6204;BME280;3135;42.602;23.468;2023-04-25T06:48:42;91780.28;;;10.02;100.00
6204;BME280;3135;42.602;23.468;2023-04-25T06:51:07;91797.28;;;10.23;100.00
6204;BME280;3135;42.602;23.468;2023-04-25T06:53:32;91804.06;;;10.30;100.00
6204;BME280;3135;42.602;23.468;2023-04-25T06:55:58;91793.63;;;10.11;100.00
6204;BME280;3135;42.602;23.468;2023-04-25T06:58:23;91802.44;;;10.11;100.00
6204;BME280;3135;42.602;23.468;2023-04-25T07:00:49;91804.22;;;10.24;100.00
6204;BME280;3135;42.602;23.468;2023-04-25T07:03:14;91797.97;;;10.46;100.00
6204;BME280;3135;42.602;23.468;2023-04-25T07:05:40;91804.75;;;10.61;100.00
6204;BME280;3135;42.602;23.468;2023-04-25T07:08:05;91808.53;;;10.60;100.00
6204;BME280;3135;42.602;23.468;2023-04-25T07:10:31;91806.16;;;10.67;100.00
6204;BME280;3135;42.602;23.468;2023-04-25T07:12:56;91795.16;;;10.52;100.00
6204;BME280;3135;42.602;23.468;2023-04-25T07:15:21;91801.63;;;10.77;100.00
6204;BME280;3135;42.602;23.468;2023-04-25T07:17:47;91810.25;;;11.25;100.00
6204;BME280;3135;42.602;23.468;2023-04-25T07:20:12;91796.97;;;11.46;100.00
6204;BME280;3135;42.602;23.468;2023-04-25T07:22:38;91800.84;;;11.84;100.00
6204;BME280;3135;42.602;23.468;2023-04-25T07:25:04;91789.34;;;11.83;100.00
6204;BME280;3135;42.602;23.468;2023-04-25T07:27:30;91798.50;;;11.82;100.00
6204;BME280;3135;42.602;23.468;2023-04-25T07:29:56;91802.97;;;11.99;100.00
6204;BME280;3135;42.602;23.468;2023-04-25T07:32:21;91801.44;;;11.81;100.00
6204;BME280;3135;42.602;23.468;2023-04-25T07:34:47;91788.19;;;11.93;100.00
6204;BME280;3135;42.602;23.468;2023-04-25T07:37:13;91806.00;;;12.27;100.00
6204;BME280;3135;42.602;23.468;2023-04-25T07:39:39;91789.47;;;12.25;100.00
6204;BME280;3135;42.602;23.468;2023-04-25T07:42:05;91780.59;;;12.03;100.00
6204;BME280;3135;42.602;23.468;2023-04-25T07:44:33;91799.81;;;12.35;100.00
6204;BME280;3135;42.602;23.468;2023-04-25T07:47:05;91796.06;;;12.57;100.00
6204;BME280;3135;42.602;23.468;2023-04-25T07:49:33;91782.47;;;12.62;100.00
6204;BME280;3135;42.602;23.468;2023-04-25T07:51:59;91779.13;;;12.65;100.00
6204;BME280;3135;42.602;23.468;2023-04-25T07:54:24;91784.28;;;12.49;100.00
6204;BME280;3135;42.602;23.468;2023-04-25T07:56:50;91783.31;;;12.54;100.00
6204;BME280;3135;42.602;23.468;2023-04-25T07:59:15;91793.25;;;12.53;100.00
6204;BME280;3135;42.602;23.468;2023-04-25T08:01:41;91783.63;;;12.73;100.00
6204;BME280;3135;42.602;23.468;2023-04-25T08:04:06;91783.00;;;12.76;100.00
6204;BME280;3135;42.602;23.468;2023-04-25T08:06:32;91785.06;;;12.92;100.00
6204;BME280;3135;42.602;23.468;2023-04-25T08:08:58;91785.34;;;12.78;100.00
6204;BME280;3135;42.602;23.468;2023-04-25T08:11:23;91785.72;;;12.89;100.00
6204;BME280;3135;42.602;23.468;2023-04-25T08:13:48;91797.44;;;12.84;100.00
6204;BME280;3135;42.602;23.468;2023-04-25T08:16:14;91791.28;;;12.84;100.00
6204;BME280;3135;42.602;23.468;2023-04-25T08:18:40;91797.84;;;12.95;100.00
6204;BME280;3135;42.602;23.468;2023-04-25T08:21:05;91771.53;;;12.67;100.00
6204;BME280;3135;42.602;23.468;2023-04-25T08:23:31;91793.19;;;12.83;100.00
6204;BME280;3135;42.602;23.468;2023-04-25T08:25:57;91774.75;;;12.82;100.00
6204;BME280;3135;42.602;23.468;2023-04-25T08:28:22;91787.97;;;12.87;100.00
6204;BME280;3135;42.602;23.468;2023-04-25T08:30:48;91791.03;;;12.97;100.00
6204;BME280;3135;42.602;23.468;2023-04-25T08:33:13;91762.09;;;13.03;100.00
6204;BME280;3135;42.602;23.468;2023-04-25T08:35:39;91763.13;;;12.57;100.00
6204;BME280;3135;42.602;23.468;2023-04-25T08:38:05;91770.44;;;12.89;100.00
6204;BME280;3135;42.602;23.468;2023-04-25T08:40:35;91744.50;;;13.14;100.00
6204;BME280;3135;42.602;23.468;2023-04-25T08:43:03;91758.00;;;13.39;100.00
6204;BME280;3135;42.602;23.468;2023-04-25T08:45:32;91770.28;;;13.73;100.00
6204;BME280;3135;42.602;23.468;2023-04-25T08:47:58;91769.06;;;13.82;100.00
6204;BME280;3135;42.602;23.468;2023-04-25T08:50:24;91770.31;;;13.97;100.00
6204;BME280;3135;42.602;23.468;2023-04-25T08:52:53;91759.00;;;13.79;100.00
6204;BME280;3135;42.602;23.468;2023-04-25T08:55:20;91778.25;;;14.06;100.00
6204;BME280;3135;42.602;23.468;2023-04-25T08:57:47;91761.88;;;13.62;100.00
6204;BME280;3135;42.602;23.468;2023-04-25T09:00:13;91764.41;;;13.46;100.00
6204;BME280;3135;42.602;23.468;2023-04-25T09:02:39;91774.06;;;13.26;100.00
6204;BME280;3135;42.602;23.468;2023-04-25T09:05:06;91777.50;;;13.48;100.00
6204;BME280;3135;42.602;23.468;2023-04-25T09:07:32;91763.28;;;13.47;100.00
6204;BME280;3135;42.602;23.468;2023-04-25T09:09:58;91767.03;;;13.55;100.00
6204;BME280;3135;42.602;23.468;2023-04-25T09:12:27;91777.13;;;13.82;100.00
6204;BME280;3135;42.602;23.468;2023-04-25T09:15:08;91771.00;;;14.19;100.00
6204;BME280;3135;42.602;23.468;2023-04-25T09:17:33;91772.34;;;14.37;100.00
6204;BME280;3135;42.602;23.468;2023-04-25T09:20:17;91774.00;;;14.66;100.00
6204;BME280;3135;42.602;23.468;2023-04-25T09:22:45;91774.00;;;14.66;100.00
6204;BME280;3135;42.602;23.468;2023-04-25T09:25:12;91765.44;;;14.89;100.00
6204;BME280;3135;42.602;23.468;2023-04-25T09:27:53;91773.69;;;15.08;100.00
6204;BME280;3135;42.602;23.468;2023-04-25T09:30:29;91767.69;;;14.87;100.00
6204;BME280;3135;42.602;23.468;2023-04-25T09:33:10;91752.59;;;14.82;100.00
6204;BME280;3135;42.602;23.468;2023-04-25T09:35:41;91746.59;;;15.01;100.00
6204;BME280;3135;42.602;23.468;2023-04-25T09:38:11;91737.91;;;15.36;100.00
6204;BME280;3135;42.602;23.468;2023-04-25T09:40:45;91739.84;;;15.51;100.00
6204;BME280;3135;42.602;23.468;2023-04-25T09:43:21;91747.25;;;15.54;100.00
6204;BME280;3135;42.602;23.468;2023-04-25T09:45:47;91742.28;;;15.56;100.00
6204;BME280;3135;42.602;23.468;2023-04-25T09:48:19;91746.94;;;15.71;100.00
6204;BME280;3135;42.602;23.468;2023-04-25T09:51:04;91740.09;;;15.46;100.00
6204;BME280;3135;42.602;23.468;2023-04-25T09:53:30;91747.16;;;15.22;100.00
6204;BME280;3135;42.602;23.468;2023-04-25T09:55:59;91757.53;;;15.08;100.00
6204;BME280;3135;42.602;23.468;2023-04-25T09:58:25;91750.47;;;15.16;100.00
6204;BME280;3135;42.602;23.468;2023-04-25T10:00:55;91765.13;;;15.18;100.00
6204;BME280;3135;42.602;23.468;2023-04-25T10:03:25;91766.34;;;14.80;100.00
6204;BME280;3135;42.602;23.468;2023-04-25T10:05:51;91756.88;;;14.46;100.00
6204;BME280;3135;42.602;23.468;2023-04-25T10:08:18;91773.13;;;14.13;100.00
6204;BME280;3135;42.602;23.468;2023-04-25T10:10:45;91751.50;;;14.10;100.00
6204;BME280;3135;42.602;23.468;2023-04-25T10:13:12;91747.47;;;14.28;100.00
6204;BME280;3135;42.602;23.468;2023-04-25T10:15:40;91757.69;;;14.59;100.00
6204;BME280;3135;42.602;23.468;2023-04-25T10:18:06;91736.84;;;14.31;100.00
6204;BME280;3135;42.602;23.468;2023-04-25T10:20:32;91740.31;;;14.56;100.00
6204;BME280;3135;42.602;23.468;2023-04-25T10:23:06;91721.00;;;14.67;100.00
6204;BME280;3135;42.602;23.468;2023-04-25T10:25:35;91709.69;;;14.73;100.00
6204;BME280;3135;42.602;23.468;2023-04-25T10:28:03;91711.13;;;15.11;100.00
6204;BME280;3135;42.602;23.468;2023-04-25T10:30:29;91704.06;;;15.34;100.00
6204;BME280;3135;42.602;23.468;2023-04-25T10:32:55;91723.50;;;15.88;100.00
6204;BME280;3135;42.602;23.468;2023-04-25T10:38:09;91722.78;;;15.75;100.00
6204;BME280;3135;42.602;23.468;2023-04-25T10:40:35;91708.06;;;15.56;100.00
6204;BME280;3135;42.602;23.468;2023-04-25T10:43:33;91750.34;;;15.40;100.00
6204;BME280;3135;42.602;23.468;2023-04-25T10:45:59;91724.47;;;15.07;100.00
6204;BME280;3135;42.602;23.468;2023-04-25T10:48:30;91738.53;;;14.89;100.00
6204;BME280;3135;42.602;23.468;2023-04-25T10:51:14;91735.38;;;14.99;100.00
6204;BME280;3135;42.602;23.468;2023-04-25T10:53:40;91708.81;;;14.97;100.00
6204;BME280;3135;42.602;23.468;2023-04-25T10:56:19;91731.47;;;14.31;100.00
6204;BME280;3135;42.602;23.468;2023-04-25T10:58:45;91737.13;;;14.79;100.00
6204;BME280;3135;42.602;23.468;2023-04-25T11:01:14;91715.53;;;14.39;100.00
6204;BME280;3135;42.602;23.468;2023-04-25T11:03:41;91744.22;;;14.59;100.00
6204;BME280;3135;42.602;23.468;2023-04-25T11:07:03;91754.53;;;14.45;100.00
6204;BME280;3135;42.602;23.468;2023-04-25T11:09:02;91753.97;;;14.15;100.00
6204;BME280;3135;42.602;23.468;2023-04-25T11:11:29;91756.31;;;13.92;100.00
6204;BME280;3135;42.602;23.468;2023-04-25T11:13:55;91755.59;;;13.58;100.00
6204;BME280;3135;42.602;23.468;2023-04-25T11:16:24;91751.25;;;13.66;100.00
6204;BME280;3135;42.602;23.468;2023-04-25T11:18:49;91747.06;;;13.44;100.00
6204;BME280;3135;42.602;23.468;2023-04-25T11:21:15;91769.56;;;13.51;100.00
6204;BME280;3135;42.602;23.468;2023-04-25T11:23:41;91757.97;;;13.26;100.00
6204;BME280;3135;42.602;23.468;2023-04-25T11:26:10;91757.72;;;13.19;100.00
6204;BME280;3135;42.602;23.468;2023-04-25T11:28:36;91758.16;;;13.54;100.00
6204;BME280;3135;42.602;23.468;2023-04-25T11:31:02;91729.56;;;13.71;100.00
6204;BME280;3135;42.602;23.468;2023-04-25T11:33:29;91713.81;;;13.69;100.00
6204;BME280;3135;42.602;23.468;2023-04-25T11:35:55;91731.13;;;13.96;100.00
6204;BME280;3135;42.602;23.468;2023-04-25T11:38:22;91723.41;;;13.70;100.00
6204;BME280;3135;42.602;23.468;2023-04-25T11:40:54;91714.34;;;13.50;100.00
6204;BME280;3135;42.602;23.468;2023-04-25T11:43:21;91735.00;;;13.50;100.00
6204;BME280;3135;42.602;23.468;2023-04-25T11:45:48;91730.13;;;13.76;100.00
6204;BME280;3135;42.602;23.468;2023-04-25T11:48:14;91728.22;;;13.77;100.00
6204;BME280;3135;42.602;23.468;2023-04-25T11:50:39;91728.06;;;13.49;100.00
6204;BME280;3135;42.602;23.468;2023-04-25T11:53:05;91724.84;;;13.55;100.00
6204;BME280;3135;42.602;23.468;2023-04-25T11:55:31;91742.19;;;13.82;100.00
6204;BME280;3135;42.602;23.468;2023-04-25T11:57:59;91737.97;;;13.94;100.00
6204;BME280;3135;42.602;23.468;2023-04-25T12:00:25;91735.72;;;13.96;100.00
6204;BME280;3135;42.602;23.468;2023-04-25T12:02:56;91739.75;;;14.14;100.00
6204;BME280;3135;42.602;23.468;2023-04-25T12:05:31;91740.50;;;14.39;100.00
6204;BME280;3135;42.602;23.468;2023-04-25T12:08:09;91727.44;;;14.01;100.00
6204;BME280;3135;42.602;23.468;2023-04-25T12:10:38;91739.41;;;13.91;100.00
6204;BME280;3135;42.602;23.468;2023-04-25T12:13:21;91735.41;;;13.97;100.00
6204;BME280;3135;42.602;23.468;2023-04-25T12:15:47;91737.75;;;13.87;100.00
6204;BME280;3135;42.602;23.468;2023-04-25T12:18:12;91743.69;;;13.35;100.00
6204;BME280;3135;42.602;23.468;2023-04-25T12:20:38;91738.09;;;13.07;100.00
6204;BME280;3135;42.602;23.468;2023-04-25T12:23:05;91724.47;;;12.58;100.00
6204;BME280;3135;42.602;23.468;2023-04-25T12:25:42;91722.97;;;12.48;100.00
6204;BME280;3135;42.602;23.468;2023-04-25T12:28:16;91709.69;;;12.31;100.00
6204;BME280;3135;42.602;23.468;2023-04-25T12:31:03;91696.66;;;11.99;100.00
6204;BME280;3135;42.602;23.468;2023-04-25T12:33:33;91689.25;;;12.05;100.00
6204;BME280;3135;42.602;23.468;2023-04-25T12:36:00;91682.66;;;12.44;100.00
6204;BME280;3135;42.602;23.468;2023-04-25T12:38:38;91697.66;;;12.78;100.00
6204;BME280;3135;42.602;23.468;2023-04-25T12:41:04;91663.34;;;12.72;100.00
6204;BME280;3135;42.602;23.468;2023-04-25T12:43:29;91682.53;;;12.41;100.00
6204;BME280;3135;42.602;23.468;2023-04-25T12:45:55;91701.78;;;12.55;100.00
6204;BME280;3135;42.602;23.468;2023-04-25T12:48:21;91704.06;;;12.65;100.00
6204;BME280;3135;42.602;23.468;2023-04-25T12:50:48;91712.06;;;12.53;100.00
6204;BME280;3135;42.602;23.468;2023-04-25T12:53:22;91718.53;;;12.52;100.00
6204;BME280;3135;42.602;23.468;2023-04-25T12:55:48;91692.78;;;12.39;100.00
6204;BME280;3135;42.602;23.468;2023-04-25T12:58:15;91703.69;;;12.54;100.00
6204;BME280;3135;42.602;23.468;2023-04-25T13:00:40;91688.34;;;12.43;100.00
6204;BME280;3135;42.602;23.468;2023-04-25T13:03:06;91709.31;;;12.20;100.00
6204;BME280;3135;42.602;23.468;2023-04-25T13:05:31;91726.16;;;12.20;100.00
6204;BME280;3135;42.602;23.468;2023-04-25T13:07:57;91747.13;;;11.80;100.00
6204;BME280;3135;42.602;23.468;2023-04-25T13:10:22;91747.22;;;11.63;100.00
6204;BME280;3135;42.602;23.468;2023-04-25T13:12:48;91746.47;;;11.45;100.00
6204;BME280;3135;42.602;23.468;2023-04-25T13:15:13;91741.28;;;11.48;100.00
6204;BME280;3135;42.602;23.468;2023-04-25T13:17:40;91748.56;;;11.86;100.00
6204;BME280;3135;42.602;23.468;2023-04-25T13:20:07;91735.91;;;12.25;100.00
6204;BME280;3135;42.602;23.468;2023-04-25T13:22:35;91752.72;;;12.55;100.00
6204;BME280;3135;42.602;23.468;2023-04-25T13:25:05;91752.91;;;12.50;100.00
6204;BME280;3135;42.602;23.468;2023-04-25T13:27:32;91751.16;;;12.54;100.00
6204;BME280;3135;42.602;23.468;2023-04-25T13:30:00;91745.84;;;12.45;100.00
6204;BME280;3135;42.602;23.468;2023-04-25T13:32:26;91748.91;;;12.35;100.00
6204;BME280;3135;42.602;23.468;2023-04-25T13:34:53;91740.44;;;12.33;100.00
6204;BME280;3135;42.602;23.468;2023-04-25T13:37:18;91748.38;;;12.21;100.00
6204;BME280;3135;42.602;23.468;2023-04-25T13:39:44;91745.50;;;11.96;100.00